Time;durP1;ratioP1;P1;durP2;ratioP2;P2;SDS_P1;SDS_P2;PMS_P1;PMS_P2;Temp;Humidity;BMP_temperature;BMP_pressure;BME280_temperature;BME280_humidity;BME280_pressure;Samples;Min_cycle;Max_cycle;Signal;HPM_P1;HPM_P2
2022/11/19 00:01:06;;;;;;;2.90;2.60;;;9.60;59.20;;;;;;20397;6879;313685;-70
2022/11/19 00:03:33;;;;;;;3.60;2.60;;;10.00;57.50;;;;;;20593;6879;118177;-71
2022/11/19 00:06:01;;;;;;;2.37;2.17;;;9.90;58.40;;;;;;20606;6879;117519;-70
2022/11/19 00:08:27;;;;;;;2.30;2.20;;;9.70;59.00;;;;;;20588;6879;117838;-70
2022/11/19 00:10:53;;;;;;;2.80;2.60;;;9.70;59.20;;;;;;20400;6879;319469;-70
2022/11/19 00:13:19;;;;;;;2.77;2.57;;;9.60;59.10;;;;;;20611;6879;117613;-69
2022/11/19 00:15:44;;;;;;;2.50;2.30;;;9.70;59.10;;;;;;20597;6879;123272;-70
2022/11/19 00:18:10;;;;;;;2.50;2.30;;;9.50;59.50;;;;;;20613;6879;117451;-70
2022/11/19 00:20:35;;;;;;;1.92;1.80;;;9.40;60.00;;;;;;20612;6879;117825;-70
2022/11/19 00:23:01;;;;;;;5.60;2.47;;;9.30;60.30;;;;;;20612;6879;121651;-69
2022/11/19 00:25:27;;;;;;;2.22;2.10;;;9.20;60.60;;;;;;20627;6879;117659;-70
2022/11/19 00:27:52;;;;;;;2.30;2.20;;;9.10;60.90;;;;;;20593;6879;117753;-70
2022/11/19 00:30:18;;;;;;;3.00;2.80;;;9.10;61.20;;;;;;20397;6879;322288;-70
2022/11/19 00:32:43;;;;;;;2.70;2.50;;;9.30;60.70;;;;;;20611;6879;117637;-70
2022/11/19 00:35:09;;;;;;;3.47;3.17;;;9.40;60.40;;;;;;20401;6879;340042;-70
2022/11/19 00:37:34;;;;;;;3.53;3.10;;;9.60;59.80;;;;;;20613;6879;117403;-70
2022/11/19 00:40:00;;;;;;;3.70;3.30;;;9.60;59.70;;;;;;20384;6879;310970;-70
2022/11/19 00:42:26;;;;;;;3.40;3.10;;;9.80;59.00;;;;;;20398;6879;284025;-70
2022/11/19 00:44:51;;;;;;;3.60;3.30;;;10.10;57.10;;;;;;20408;6879;279722;-70
2022/11/19 00:47:17;;;;;;;3.10;2.90;;;10.40;56.20;;;;;;20408;6879;338122;-71
2022/11/19 00:49:42;;;;;;;2.90;2.63;;;10.60;55.60;;;;;;20597;6879;117919;-70
2022/11/19 00:52:08;;;;;;;3.13;2.80;;;10.40;55.90;;;;;;20401;6879;309722;-70
2022/11/19 00:54:33;;;;;;;4.03;2.90;;;10.40;55.70;;;;;;20614;6878;117701;-70
2022/11/19 00:56:59;;;;;;;2.90;2.70;;;10.20;55.90;;;;;;20405;6879;313504;-70
2022/11/19 00:59:24;;;;;;;5.07;2.50;;;10.20;55.90;;;;;;20620;6879;117302;-70
2022/11/19 01:01:50;;;;;;;3.07;2.70;;;10.10;56.20;;;;;;20390;6879;284421;-70
2022/11/19 01:04:16;;;;;;;3.10;2.80;;;10.10;56.00;;;;;;20405;6879;309702;-70
2022/11/19 01:06:41;;;;;;;3.17;2.90;;;10.40;55.70;;;;;;20399;6879;294113;-70
2022/11/19 01:09:07;;;;;;;2.87;2.67;;;10.60;55.10;;;;;;20621;6879;117444;-70
2022/11/19 01:11:32;;;;;;;2.65;2.45;;;10.40;55.40;;;;;;20409;6879;309099;-70
2022/11/19 01:13:59;;;;;;;2.22;2.12;;;10.50;54.90;;;;;;20386;6879;295691;-70
2022/11/19 01:16:33;;;;;;;2.03;1.93;;;10.50;54.80;;;;;;20620;6879;118227;-70
2022/11/19 01:18:59;;;;;;;2.17;2.00;;;10.40;55.20;;;;;;20616;6879;117807;-70
2022/11/19 01:21:25;;;;;;;2.33;1.90;;;10.00;55.80;;;;;;20617;6879;117318;-70
2022/11/19 01:23:50;;;;;;;2.63;2.47;;;9.80;57.60;;;;;;20594;6879;128061;-70
2022/11/19 01:26:16;;;;;;;2.20;2.10;;;9.60;58.30;;;;;;20617;6879;117819;-70
2022/11/19 01:28:42;;;;;;;2.00;1.90;;;9.30;59.20;;;;;;20612;6879;117706;-70
2022/11/19 01:31:08;;;;;;;2.20;2.10;;;9.30;59.20;;;;;;20615;6879;117702;-70
2022/11/19 01:33:34;;;;;;;2.57;2.17;;;9.50;60.00;;;;;;20383;6879;279478;-70
2022/11/19 01:35:59;;;;;;;2.60;2.40;;;9.50;59.30;;;;;;20379;6879;310237;-70
2022/11/19 01:38:26;;;;;;;2.07;1.90;;;9.90;58.10;;;;;;20610;6879;117334;-70
2022/11/19 01:40:51;;;;;;;4.12;2.17;;;9.80;58.00;;;;;;20408;6879;321405;-70
2022/11/19 01:43:17;;;;;;;2.33;2.13;;;10.00;56.70;;;;;;20408;6879;279546;-69
2022/11/19 01:45:53;;;;;;;2.35;2.25;;;10.30;56.00;;;;;;20596;6879;118267;-70
2022/11/19 01:48:25;;;;;;;2.50;2.10;;;10.20;56.10;;;;;;20608;6879;118014;-70
2022/11/19 01:50:54;;;;;;;3.10;2.40;;;9.90;57.60;;;;;;20399;6879;308799;-70
2022/11/19 01:53:19;;;;;;;2.13;1.90;;;10.00;56.50;;;;;;20616;6879;117672;-70
2022/11/19 01:55:45;;;;;;;2.50;2.30;;;10.00;56.60;;;;;;20384;6879;310036;-70
2022/11/19 01:58:11;;;;;;;2.27;2.07;;;10.00;56.60;;;;;;20405;6879;310081;-70
2022/11/19 02:00:37;;;;;;;3.95;2.35;;;10.30;56.00;;;;;;20394;6879;309291;-70
2022/11/19 02:03:02;;;;;;;2.97;2.60;;;10.50;55.50;;;;;;20618;6879;117432;-70
2022/11/19 02:05:28;;;;;;;3.70;2.53;;;10.40;56.10;;;;;;20404;6877;312537;-70
2022/11/19 02:07:57;;;;;;;3.35;3.08;;;10.60;56.00;;;;;;20392;6879;279988;-70
2022/11/19 02:10:24;;;;;;;3.07;2.87;;;10.50;55.80;;;;;;20597;6879;117564;-69
2022/11/19 02:13:12;;;;;;;2.43;2.33;;;10.40;56.00;;;;;;20585;6879;117224;-71
2022/11/19 02:15:44;;;;;;;2.43;2.23;;;10.10;56.60;;;;;;20613;6879;117722;-70
2022/11/19 02:18:21;;;;;;;2.53;2.33;;;9.60;59.00;;;;;;20590;6879;117517;-69
2022/11/19 02:21:03;;;;;;;2.45;2.28;;;9.60;58.90;;;;;;20385;6879;310989;-70
2022/11/19 02:24:08;;;;;;;2.20;2.03;;;9.70;58.40;;;;;;20602;6879;117737;-70
2022/11/19 02:26:53;;;;;;;3.47;2.20;;;9.70;58.40;;;;;;19363;7222;322474;-70
2022/11/19 02:29:28;;;;;;;2.87;2.65;;;9.90;58.00;;;;;;19335;7222;322625;-70
2022/11/19 02:32:04;;;;;;;2.17;1.93;;;10.20;56.40;;;;;;19752;6869;119599;-69
2022/11/19 02:34:36;;;;;;;5.35;2.30;;;10.10;57.20;;;;;;20414;6869;323955;-69
2022/11/19 02:37:22;;;;;;;3.97;2.33;;;10.10;56.60;;;;;;20599;6879;120227;-70
2022/11/19 02:39:57;;;;;;;2.33;2.13;;;9.90;57.80;;;;;;20369;6880;309806;-70
2022/11/19 02:42:26;;;;;;;2.63;2.43;;;10.00;56.60;;;;;;20592;6884;119925;-70
2022/11/19 02:44:58;;;;;;;2.13;2.03;;;9.90;57.80;;;;;;20584;6884;117593;-71
2022/11/19 02:47:40;;;;;;;2.20;2.00;;;9.70;58.50;;;;;;20607;6884;117376;-71
2022/11/19 02:50:16;;;;;;;1.90;1.80;;;9.30;59.60;;;;;;20430;6884;122866;-70
2022/11/19 02:52:42;;;;;;;3.65;2.10;;;9.30;59.60;;;;;;20333;6884;284777;-71
2022/11/19 02:55:18;;;;;;;2.10;2.00;;;9.50;59.20;;;;;;20351;6869;343387;-71
2022/11/19 02:57:44;;;;;;;2.80;2.50;;;9.80;58.30;;;;;;20361;6869;347008;-70
2022/11/19 03:05:37;;;;;;;3.30;2.20;;;10.60;55.30;;;;;;19385;7214;293270;-71
2022/11/19 03:08:02;;;;;;;2.15;2.00;;;10.70;54.80;;;;;;19875;6884;284615;-70
2022/11/19 03:10:28;;;;;;;2.37;2.17;;;10.70;54.00;;;;;;20377;6888;310106;-71
2022/11/19 03:16:40;;;;;;;2.10;1.90;;;10.80;54.70;;;;;;20368;6884;309435;-72
2022/11/19 03:18:31;;;;;;;2.20;2.00;;;10.80;54.60;;;;;;20399;6883;278819;-70
2022/11/19 03:20:57;;;;;;;2.03;1.77;;;10.90;54.60;;;;;;20600;6884;122177;-70
2022/11/19 03:23:28;;;;;;;1.40;1.30;;;10.60;55.10;;;;;;20528;6880;117689;-70
2022/11/19 03:25:54;;;;;;;2.37;1.73;;;10.20;56.00;;;;;;20369;6880;300401;-70
2022/11/19 03:28:19;;;;;;;1.80;1.70;;;10.20;56.60;;;;;;20593;6880;123600;-70
2022/11/19 03:30:46;;;;;;;1.85;1.75;;;9.80;58.40;;;;;;20599;6880;117330;-70
2022/11/19 03:33:21;;;;;;;3.57;2.20;;;9.80;58.40;;;;;;20400;6880;280715;-70
2022/11/19 03:35:46;;;;;;;2.93;1.90;;;9.90;58.70;;;;;;20552;6880;117825;-70
2022/11/19 03:38:12;;;;;;;3.73;2.00;;;9.80;58.80;;;;;;20545;6895;117344;-70
2022/11/19 03:40:37;;;;;;;2.50;2.20;;;9.60;59.30;;;;;;20561;6895;117602;-70
2022/11/19 03:43:03;;;;;;;2.50;2.30;;;9.40;59.90;;;;;;20360;6895;309990;-70
2022/11/19 03:45:28;;;;;;;2.30;2.20;;;9.60;59.90;;;;;;20547;6895;117524;-70
2022/11/19 03:47:54;;;;;;;2.40;2.25;;;9.60;59.70;;;;;;20364;6880;310590;-70
2022/11/19 03:50:50;;;;;;;3.30;2.50;;;9.60;59.70;;;;;;20393;6880;284080;-70
2022/11/19 03:53:15;;;;;;;3.03;2.30;;;9.90;59.10;;;;;;20394;6880;309260;-70
2022/11/19 03:55:57;;;;;;;3.25;2.30;;;10.20;57.50;;;;;;20603;6880;119891;-71
2022/11/19 03:58:23;;;;;;;2.60;2.40;;;10.10;57.60;;;;;;20383;6880;338850;-70
2022/11/19 04:00:48;;;;;;;2.08;1.87;;;10.10;57.70;;;;;;20614;6880;118340;-70
2022/11/19 04:03:15;;;;;;;2.00;1.60;;;9.70;59.70;;;;;;20618;6880;117431;-71
2022/11/19 04:05:40;;;;;;;2.70;2.23;;;9.70;59.70;;;;;;20405;6880;309241;-70
2022/11/19 04:08:06;;;;;;;2.30;2.10;;;9.70;59.80;;;;;;20385;6880;280057;-69
2022/11/19 04:10:31;;;;;;;3.60;2.10;;;10.00;58.30;;;;;;20618;6880;117758;-69
2022/11/19 04:12:57;;;;;;;2.03;1.90;;;9.90;59.20;;;;;;20403;6880;343022;-70
2022/11/19 04:15:22;;;;;;;2.33;1.75;;;10.00;58.30;;;;;;20401;6880;279708;-69
2022/11/19 04:17:48;;;;;;;1.90;1.80;;;10.20;57.50;;;;;;20600;6880;117443;-69
2022/11/19 04:20:14;;;;;;;3.50;2.10;;;10.10;57.60;;;;;;20400;6880;313500;-70
2022/11/19 04:22:39;;;;;;;1.95;1.85;;;10.10;57.60;;;;;;20410;6880;280262;-70
2022/11/19 04:25:05;;;;;;;1.90;1.73;;;10.30;57.30;;;;;;20402;6880;279595;-70
2022/11/19 04:27:30;;;;;;;1.70;1.60;;;10.50;56.80;;;;;;20620;6880;117346;-69
2022/11/19 04:29:56;;;;;;;1.60;1.50;;;10.30;57.10;;;;;;20592;6879;117817;-69
2022/11/19 04:32:22;;;;;;;1.50;1.40;;;9.70;59.60;;;;;;20623;6880;117102;-69
2022/11/19 04:34:48;;;;;;;1.83;1.62;;;9.70;59.60;;;;;;20417;6880;308613;-70
2022/11/19 04:37:13;;;;;;;1.83;1.63;;;9.80;60.00;;;;;;20404;6880;289381;-69
2022/11/19 04:39:40;;;;;;;1.73;1.50;;;10.10;58.40;;;;;;20605;6880;117245;-70
2022/11/19 04:42:05;;;;;;;1.70;1.40;;;10.00;58.30;;;;;;20585;6880;117836;-70
2022/11/19 04:44:31;;;;;;;1.08;1.08;;;9.80;59.90;;;;;;20610;6880;117422;-69
2022/11/19 04:46:57;;;;;;;3.70;1.40;;;9.60;60.50;;;;;;20614;6880;117259;-70
2022/11/19 04:49:22;;;;;;;1.17;1.17;;;9.50;61.10;;;;;;20610;6880;117241;-70
2022/11/19 04:51:48;;;;;;;1.83;1.40;;;9.50;61.30;;;;;;20380;6880;339498;-70
2022/11/19 04:54:15;;;;;;;2.67;1.37;;;9.60;61.20;;;;;;20619;6880;117297;-70
2022/11/19 04:56:40;;;;;;;1.63;1.53;;;9.60;61.40;;;;;;20402;6880;338878;-69
2022/11/19 04:59:06;;;;;;;2.37;1.53;;;9.80;60.60;;;;;;20619;6880;123145;-69
2022/11/19 05:01:31;;;;;;;2.42;1.40;;;9.80;60.40;;;;;;20620;6880;122591;-70
2022/11/19 05:03:57;;;;;;;1.92;1.42;;;9.70;60.80;;;;;;20602;6880;127047;-69
2022/11/19 05:06:22;;;;;;;1.37;1.27;;;9.50;61.20;;;;;;20612;6880;117812;-69
2022/11/19 05:08:48;;;;;;;3.42;1.90;;;9.40;61.60;;;;;;20395;6880;314302;-69
2022/11/19 05:11:14;;;;;;;3.40;2.07;;;9.90;60.60;;;;;;20408;6880;280014;-69
2022/11/19 05:13:40;;;;;;;5.43;2.17;;;9.90;60.60;;;;;;20406;6880;280352;-70
2022/11/19 05:16:06;;;;;;;1.87;1.53;;;10.10;58.70;;;;;;20578;6880;117414;-70
2022/11/19 05:18:32;;;;;;;3.60;1.90;;;10.10;58.80;;;;;;20399;6880;308465;-70
2022/11/19 05:20:57;;;;;;;2.00;1.80;;;10.10;58.80;;;;;;20341;6880;301441;-69
2022/11/19 05:23:24;;;;;;;2.33;1.90;;;10.30;58.40;;;;;;20392;6880;286721;-68
2022/11/19 05:25:49;;;;;;;2.50;2.20;;;10.50;58.20;;;;;;20380;6880;309683;-69
2022/11/19 05:28:14;;;;;;;2.60;1.67;;;10.60;57.80;;;;;;20399;6880;284083;-69
2022/11/19 05:30:40;;;;;;;1.60;1.50;;;10.70;57.60;;;;;;20616;6880;117941;-69
2022/11/19 05:33:05;;;;;;;1.70;1.60;;;10.50;58.00;;;;;;20614;6880;118429;-68
2022/11/19 05:35:31;;;;;;;2.25;2.05;;;10.10;58.80;;;;;;20400;6880;343341;-68
2022/11/19 05:37:57;;;;;;;2.45;1.80;;;10.30;58.60;;;;;;20384;6880;284625;-69
2022/11/19 05:40:23;;;;;;;2.00;1.90;;;10.40;58.70;;;;;;20409;6879;287197;-71
2022/11/19 05:42:49;;;;;;;2.70;1.87;;;10.70;57.50;;;;;;20407;6880;339510;-72
2022/11/19 05:45:15;;;;;;;2.60;1.90;;;10.70;57.50;;;;;;20408;6880;319423;-72
2022/11/19 05:47:40;;;;;;;3.43;1.83;;;10.80;57.20;;;;;;20609;6880;123187;-71
2022/11/19 05:50:06;;;;;;;2.15;1.60;;;10.60;57.60;;;;;;20597;6880;117629;-71
2022/11/19 05:52:32;;;;;;;1.57;1.47;;;9.90;60.10;;;;;;20607;6880;117320;-71
2022/11/19 05:54:58;;;;;;;2.30;2.10;;;9.90;60.10;;;;;;20395;6880;309603;-71
2022/11/19 05:57:24;;;;;;;1.77;1.67;;;9.90;60.20;;;;;;20593;6880;117268;-71
2022/11/19 05:59:50;;;;;;;3.50;1.70;;;9.90;60.10;;;;;;20571;6880;118235;-71
2022/11/19 06:02:15;;;;;;;2.03;1.83;;;9.70;60.60;;;;;;20386;6880;314193;-71
2022/11/19 06:04:42;;;;;;;1.87;1.70;;;9.90;61.30;;;;;;20614;6880;117170;-71
2022/11/19 06:07:07;;;;;;;3.00;1.90;;;9.80;61.00;;;;;;20375;6880;338949;-72
2022/11/19 06:09:33;;;;;;;1.97;1.87;;;9.90;61.40;;;;;;20610;6880;117359;-71
2022/11/19 06:11:59;;;;;;;6.43;2.47;;;9.90;61.00;;;;;;20577;6880;117286;-71
2022/11/19 06:14:25;;;;;;;30.27;3.13;;;9.80;61.50;;;;;;20601;6880;117871;-71
2022/11/19 06:16:53;;;;;;;12.40;3.10;;;9.60;62.60;;;;;;20592;6880;117469;-72
2022/11/19 06:19:19;;;;;;;2.60;1.87;;;9.40;62.40;;;;;;20598;6880;117418;-71
2022/11/19 06:21:44;;;;;;;2.40;2.20;;;9.40;63.10;;;;;;20577;6880;117704;-72
2022/11/19 06:24:11;;;;;;;4.15;2.20;;;9.30;64.20;;;;;;20611;6880;118303;-71
2022/11/19 06:26:36;;;;;;;2.20;2.10;;;9.30;64.20;;;;;;20605;6880;118390;-72
2022/11/19 06:29:02;;;;;;;2.20;2.10;;;9.30;64.40;;;;;;20386;6880;309229;-72
2022/11/19 06:31:28;;;;;;;5.03;1.90;;;9.80;63.60;;;;;;20593;6880;124124;-73
2022/11/19 06:33:54;;;;;;;3.10;1.93;;;9.80;63.40;;;;;;20584;6880;123135;-73
2022/11/19 06:36:20;;;;;;;5.70;2.30;;;9.80;63.40;;;;;;20374;6880;309226;-71
2022/11/19 06:38:45;;;;;;;3.03;2.35;;;10.00;61.50;;;;;;20381;6880;300987;-72
2022/11/19 06:41:11;;;;;;;3.03;2.77;;;10.40;60.20;;;;;;20394;6880;280225;-72
2022/11/19 06:43:36;;;;;;;2.80;2.60;;;10.80;59.20;;;;;;20385;6880;280027;-73
2022/11/19 06:46:02;;;;;;;2.92;2.00;;;11.00;57.90;;;;;;20380;6880;282253;-72
2022/11/19 06:48:28;;;;;;;2.70;1.80;;;11.10;57.30;;;;;;20607;6880;117604;-72
2022/11/19 06:50:54;;;;;;;2.03;1.73;;;11.10;57.30;;;;;;20394;6880;339206;-71
2022/11/19 06:53:19;;;;;;;2.00;1.73;;;11.10;57.10;;;;;;20367;6879;309642;-73
2022/11/19 06:55:45;;;;;;;1.70;1.60;;;11.30;56.70;;;;;;20592;6880;118139;-70
2022/11/19 06:58:10;;;;;;;2.22;1.80;;;11.10;56.80;;;;;;20383;6879;313451;-71
2022/11/19 07:00:36;;;;;;;2.70;1.60;;;11.20;56.80;;;;;;20396;6879;308677;-70
2022/11/19 07:03:02;;;;;;;2.30;1.53;;;11.30;56.40;;;;;;20401;6879;313665;-71
2022/11/19 07:05:27;;;;;;;1.60;1.50;;;11.50;55.90;;;;;;20406;6879;279588;-71
2022/11/19 07:07:53;;;;;;;1.50;1.37;;;11.70;55.60;;;;;;20595;6879;117387;-73
2022/11/19 07:10:20;;;;;;;1.70;1.60;;;11.50;56.00;;;;;;20393;6879;280758;-75
2022/11/19 07:12:45;;;;;;;1.67;1.57;;;11.50;55.90;;;;;;20621;6879;117328;-72
2022/11/19 07:15:11;;;;;;;1.50;1.40;;;11.30;56.20;;;;;;20406;6879;309704;-72
2022/11/19 07:17:37;;;;;;;1.87;1.77;;;11.60;55.70;;;;;;20381;6879;339247;-72
2022/11/19 07:20:06;;;;;;;1.50;1.40;;;11.50;56.30;;;;;;20596;6879;123061;-72
2022/11/19 07:22:32;;;;;;;1.90;1.70;;;11.40;55.90;;;;;;20411;6879;284502;-72
2022/11/19 07:24:57;;;;;;;1.98;1.87;;;11.40;56.00;;;;;;20406;6879;279937;-72
2022/11/19 07:27:23;;;;;;;2.17;1.97;;;11.60;55.60;;;;;;20400;6879;308929;-71
2022/11/19 07:29:49;;;;;;;2.00;1.90;;;11.80;55.30;;;;;;20351;6879;279243;-70
2022/11/19 07:32:15;;;;;;;1.60;1.50;;;11.90;54.90;;;;;;20612;6879;117652;-71
2022/11/19 07:34:40;;;;;;;1.73;1.63;;;11.70;55.20;;;;;;20609;6879;117865;-70
2022/11/19 07:37:05;;;;;;;1.77;1.67;;;11.30;55.80;;;;;;20613;6879;118001;-73
2022/11/19 07:39:51;;;;;;;2.07;1.90;;;11.00;56.60;;;;;;20780;6651;118771;31
2022/11/19 07:45:23;;;;;;;7.77;7.23;;;10.80;57.00;;;;;;20812;6777;118277;-71
2022/11/19 07:47:58;;;;;;;3.30;3.10;;;10.70;56.80;;;;;;20758;6782;118084;-71
2022/11/19 07:50:34;;;;;;;13.38;12.43;;;10.50;57.30;;;;;;20531;6768;309122;-70
2022/11/19 07:53:10;;;;;;;7.57;7.18;;;10.80;57.30;;;;;;20569;6782;309179;-70
2022/11/19 07:55:46;;;;;;;14.70;13.50;;;10.80;57.00;;;;;;20767;6792;127197;-68
2022/11/19 07:58:22;;;;;;;4.37;4.07;;;10.60;57.00;;;;;;20835;6765;118155;-68
2022/11/19 08:00:58;;;;;;;10.60;10.00;;;10.30;58.00;;;;;;20582;6763;308067;-68
2022/11/19 08:03:33;;;;;;;11.43;10.53;;;10.30;58.00;;;;;;20838;6766;118080;-71
2022/11/19 08:06:09;;;;;;;4.30;4.00;;;10.10;57.90;;;;;;20823;6765;119845;-71
2022/11/19 08:08:45;;;;;;;7.10;6.60;;;9.80;59.60;;;;;;20622;6766;336835;-68
2022/11/19 08:11:20;;;;;;;6.47;5.17;;;10.00;59.10;;;;;;20737;6766;117228;-71
2022/11/19 08:13:56;;;;;;;11.10;10.07;;;10.00;59.10;;;;;;20798;6770;117459;-70
2022/11/19 08:19:27;;;;;;;7.25;6.72;;;9.60;61.10;;;;;;20589;6777;278307;-71
2022/11/19 08:22:02;;;;;;;5.93;5.40;;;9.90;61.40;;;;;;20510;6848;117431;-71
2022/11/19 08:24:39;;;;;;;7.07;6.47;;;9.80;62.40;;;;;;20828;6758;116993;-70
2022/11/19 08:27:16;;;;;;;7.28;6.78;;;9.80;61.70;;;;;;20645;6758;277258;-69
2022/11/19 08:29:50;;;;;;;3.53;3.33;;;10.00;60.80;;;;;;20609;6758;281518;-71
2022/11/19 08:32:25;;;;;;;3.23;3.10;;;10.40;60.00;;;;;;20819;6773;117263;-70
2022/11/19 08:35:01;;;;;;;2.60;2.50;;;10.40;59.90;;;;;;20621;6774;328837;-69
2022/11/19 08:37:37;;;;;;;3.00;2.80;;;10.50;59.50;;;;;;20892;6758;117022;-70
2022/11/19 08:40:12;;;;;;;3.10;2.90;;;10.40;59.70;;;;;;20778;6763;117527;-71
2022/11/19 08:43:01;;;;;;;3.05;2.85;;;10.30;60.40;;;;;;20665;6763;306552;-70
2022/11/19 08:45:37;;;;;;;3.97;3.67;;;10.80;59.40;;;;;;20665;6763;306130;-72
2022/11/19 08:48:14;;;;;;;3.10;2.90;;;10.80;59.40;;;;;;20867;6763;117071;-73
2022/11/19 08:50:48;;;;;;;3.03;2.65;;;10.80;59.50;;;;;;20576;6763;309199;-76
2022/11/19 08:53:24;;;;;;;2.35;2.25;;;10.90;59.20;;;;;;20610;6780;277594;-76
2022/11/19 08:56:00;;;;;;;2.10;2.00;;;11.30;58.70;;;;;;20583;6781;307658;-75
2022/11/19 08:58:35;;;;;;;1.77;1.60;;;11.60;58.00;;;;;;20811;6781;116994;-73
2022/11/19 09:01:11;;;;;;;2.47;1.60;;;11.50;58.10;;;;;;20535;6766;282369;-69
2022/11/19 09:03:46;;;;;;;2.83;1.63;;;11.50;57.30;;;;;;20631;6766;277116;-70
2022/11/19 09:06:22;;;;;;;2.27;1.87;;;11.70;56.80;;;;;;20563;6792;306437;-69
2022/11/19 09:08:58;;;;;;;2.20;1.80;;;12.00;56.60;;;;;;20906;6758;117425;-70
2022/11/19 09:11:33;;;;;;;1.70;1.60;;;11.80;57.00;;;;;;20475;6763;311448;-70
2022/11/19 09:14:09;;;;;;;2.30;1.57;;;11.90;57.00;;;;;;20776;6777;121176;-69
2022/11/19 09:16:44;;;;;;;2.53;1.37;;;11.80;57.40;;;;;;20896;6747;117043;-69
2022/11/19 09:19:21;;;;;;;1.40;1.25;;;11.70;57.40;;;;;;20657;6762;336462;-69
2022/11/19 09:21:56;;;;;;;1.20;1.20;;;11.70;57.30;;;;;;20785;6743;117579;-68
2022/11/19 09:24:32;;;;;;;1.80;1.20;;;11.70;57.40;;;;;;20970;6732;116664;-68
2022/11/19 09:27:07;;;;;;;1.70;1.50;;;11.40;57.90;;;;;;20681;6744;307988;-72
2022/11/19 09:29:44;;;;;;;1.73;1.33;;;11.60;57.50;;;;;;20875;6744;117531;-73
2022/11/19 09:32:24;;;;;;;2.13;2.00;;;11.40;58.10;;;;;;20888;6752;120177;-77
2022/11/19 09:34:56;;;;;;;2.37;1.83;;;11.40;58.10;;;;;;20969;6729;118964;-72
2022/11/19 09:37:33;;;;;;;1.90;1.80;;;11.30;58.70;;;;;;20742;6718;305693;-73
2022/11/19 09:40:08;;;;;;;1.33;1.23;;;11.50;58.60;;;;;;20890;6733;117353;-73
2022/11/19 09:42:56;;;;;;;1.63;1.23;;;11.40;58.90;;;;;;20977;6722;116765;-73
2022/11/19 09:45:56;;;;;;;1.70;1.60;;;11.40;58.40;;;;;;20757;6722;334736;-73
2022/11/19 09:48:35;;;;;;;1.27;1.20;;;11.60;57.50;;;;;;20916;6737;117133;-73
2022/11/19 09:51:13;;;;;;;1.83;1.73;;;11.60;57.60;;;;;;20576;6748;308069;-75
2022/11/19 09:53:55;;;;;;;1.60;1.50;;;11.80;56.70;;;;;;20893;6741;117155;-77
2022/11/19 09:56:31;;;;;;;1.90;1.50;;;11.90;56.40;;;;;;20707;6737;333583;-71
2022/11/19 09:59:24;;;;;;;1.63;1.50;;;11.90;56.40;;;;;;20703;6737;304920;-73
2022/11/19 10:02:00;;;;;;;1.50;1.40;;;12.10;56.20;;;;;;20729;6721;119364;-73
2022/11/19 10:04:35;;;;;;;1.50;1.40;;;12.10;56.20;;;;;;20975;6721;117315;-73
2022/11/19 10:07:52;;;;;;;1.80;1.60;;;12.00;57.00;;;;;;20975;6721;117686;-77
2022/11/19 10:10:44;;;;;;;1.90;1.80;;;11.90;57.70;;;;;;20690;6721;308112;-77
2022/11/19 10:13:26;;;;;;;1.80;1.57;;;12.10;55.80;;;;;;20897;6756;117647;-77
2022/11/19 10:16:18;;;;;;;1.93;1.83;;;12.20;56.10;;;;;;20664;6756;279554;-75
2022/11/19 10:19:13;;;;;;;3.17;2.97;;;12.40;55.70;;;;;;20092;6827;339425;-75
2022/11/19 10:22:09;;;;;;;2.20;2.10;;;12.70;54.50;;;;;;20685;6756;118972;-74
2022/11/19 10:25:02;;;;;;;2.03;1.92;;;12.60;55.00;;;;;;20639;6754;308230;-75
2022/11/19 10:27:53;;;;;;;2.40;1.53;;;12.80;54.10;;;;;;20862;6756;118912;-72
2022/11/19 10:30:28;;;;;;;2.87;1.63;;;12.80;54.90;;;;;;20583;6756;312608;-78
2022/11/19 10:33:20;;;;;;;1.53;1.40;;;12.90;54.30;;;;;;20876;6753;117448;-73
2022/11/19 10:36:02;;;;;;;1.77;1.47;;;13.00;55.00;;;;;;20848;6756;117021;-72
2022/11/19 10:38:54;;;;;;;1.75;1.65;;;12.90;55.70;;;;;;20647;6759;310251;-72
2022/11/19 10:41:29;;;;;;;1.40;1.30;;;13.10;54.50;;;;;;20771;6756;117270;-74
2022/11/19 10:44:42;;;;;;;1.60;1.50;;;13.10;54.90;;;;;;20681;6756;307961;-73
2022/11/19 10:47:21;;;;;;;1.70;1.40;;;13.20;54.00;;;;;;20909;6756;117235;-74
2022/11/19 10:50:00;;;;;;;1.90;1.60;;;13.20;54.50;;;;;;20606;6771;320688;-76
2022/11/19 10:52:41;;;;;;;1.53;1.40;;;13.30;53.20;;;;;;20795;6771;119421;-79
2022/11/19 10:55:29;;;;;;;1.80;1.70;;;13.40;52.90;;;;;;20587;6786;285078;-77
2022/11/19 10:58:14;;;;;;;1.67;1.30;;;13.40;52.60;;;;;;20814;6771;119780;-75
2022/11/19 11:00:49;;;;;;;1.60;1.50;;;13.30;53.00;;;;;;20739;6769;117946;-73
2022/11/19 11:03:25;;;;;;;2.33;1.33;;;13.00;53.70;;;;;;20874;6756;117469;-74
2022/11/19 11:06:05;;;;;;;1.27;1.17;;;12.70;54.20;;;;;;20860;6756;119576;-81
2022/11/19 11:08:50;;;;;;;1.17;1.00;;;12.50;54.60;;;;;;20876;6756;118061;-77
2022/11/19 11:14:50;;;;;;;1.80;1.40;;;12.40;55.00;;;;;;20437;6771;291326;-80
2022/11/19 11:17:01;;;;;;;2.30;1.50;;;12.80;52.70;;;;;;20837;6771;117315;-73
2022/11/19 11:19:39;;;;;;;2.35;1.30;;;12.70;53.20;;;;;;20617;6771;336289;-73
2022/11/19 11:22:12;;;;;;;1.60;1.45;;;12.70;52.70;;;;;;20620;6762;307123;-70
2022/11/19 11:24:48;;;;;;;1.60;1.30;;;12.90;52.70;;;;;;20637;6763;308224;-69
2022/11/19 11:27:27;;;;;;;1.20;1.10;;;12.90;52.10;;;;;;20641;6763;311678;-70
2022/11/19 11:30:02;;;;;;;0.90;0.90;;;13.00;51.80;;;;;;20629;6745;307963;-70
2022/11/19 11:32:38;;;;;;;2.17;1.00;;;13.10;51.80;;;;;;20856;6750;117064;-72
2022/11/19 11:35:27;;;;;;;3.05;2.95;;;12.80;52.40;;;;;;20671;6752;276856;-71
2022/11/19 11:38:02;;;;;;;4.93;4.53;;;12.70;52.20;;;;;;20870;6752;117771;-72
2022/11/19 11:40:38;;;;;;;2.70;2.50;;;12.40;52.90;;;;;;20806;6751;122181;-72
2022/11/19 11:43:13;;;;;;;2.60;2.10;;;12.00;53.60;;;;;;20659;6756;307432;-71
2022/11/19 11:45:49;;;;;;;1.80;1.70;;;12.10;53.70;;;;;;20850;6756;117003;-71
2022/11/19 11:48:26;;;;;;;1.53;1.43;;;12.00;54.00;;;;;;20644;6756;327580;-73
2022/11/19 11:51:03;;;;;;;1.30;1.20;;;12.10;53.70;;;;;;20521;6756;279588;-73
2022/11/19 11:53:41;;;;;;;1.50;1.40;;;12.30;52.80;;;;;;20869;6756;119319;-73
2022/11/19 11:56:14;;;;;;;2.78;2.58;;;12.10;53.20;;;;;;20601;6771;308617;-73
2022/11/19 11:58:50;;;;;;;2.93;2.60;;;12.20;53.40;;;;;;20875;6745;117151;-72
2022/11/19 12:01:25;;;;;;;21.50;19.70;;;12.10;54.50;;;;;;20731;6774;117142;-71
2022/11/19 12:04:01;;;;;;;11.05;10.25;;;11.90;54.60;;;;;;20595;6774;336385;-73
2022/11/19 12:06:43;;;;;;;5.83;5.40;;;12.00;54.20;;;;;;20914;6740;117539;-71
2022/11/19 12:09:39;;;;;;;9.73;8.80;;;12.00;54.60;;;;;;20897;6740;119756;-72
2022/11/19 12:12:18;;;;;;;6.60;6.10;;;11.80;56.00;;;;;;20755;6780;117135;-74
2022/11/19 12:14:57;;;;;;;6.07;5.67;;;11.80;56.00;;;;;;19924;6837;279238;-74
2022/11/19 12:17:39;;;;;;;7.07;6.67;;;12.00;55.20;;;;;;20719;6837;117055;-74
2022/11/19 12:20:37;;;;;;;2.90;2.70;;;12.20;55.50;;;;;;20708;6781;118560;-75
2022/11/19 12:23:32;;;;;;;6.15;5.78;;;12.20;55.90;;;;;;20570;6781;337963;-72
2022/11/19 12:26:12;;;;;;;3.03;2.33;;;12.50;54.30;;;;;;20516;6790;307548;-72
2022/11/19 12:29:09;;;;;;;2.70;2.50;;;13.00;52.90;;;;;;20764;6794;117729;-72
2022/11/19 12:32:07;;;;;;;3.10;2.90;;;12.90;53.10;;;;;;20569;6796;117733;-73
2022/11/19 12:34:46;;;;;;;3.12;2.92;;;12.60;53.60;;;;;;20545;6818;306611;-71
2022/11/19 12:37:25;;;;;;;3.13;2.97;;;12.80;51.70;;;;;;20851;6768;117595;-71
2022/11/19 12:40:21;;;;;;;3.22;3.03;;;12.70;52.20;;;;;;20615;6751;278327;-71
2022/11/19 12:43:27;;;;;;;3.33;3.13;;;13.10;50.60;;;;;;20594;6774;309149;-72
2022/11/19 12:46:08;;;;;;;2.23;2.13;;;13.10;50.60;;;;;;20639;6754;308418;-72
2022/11/19 12:48:51;;;;;;;1.77;1.73;;;13.30;49.40;;;;;;20867;6754;116895;-71
2022/11/19 12:51:53;;;;;;;2.45;2.30;;;13.10;50.80;;;;;;20532;6753;337425;-71
2022/11/19 12:54:58;;;;;;;2.40;2.30;;;13.10;49.70;;;;;;20623;6766;305835;-72
2022/11/19 12:57:51;;;;;;;2.10;2.00;;;13.00;50.30;;;;;;20822;6771;117007;-72
2022/11/19 13:00:27;;;;;;;1.63;1.53;;;13.00;50.30;;;;;;20783;6756;118022;-72
2022/11/19 13:03:16;;;;;;;1.80;1.70;;;12.60;51.10;;;;;;20656;6756;308064;-71
2022/11/19 13:06:02;;;;;;;1.63;1.53;;;12.70;50.40;;;;;;20804;6766;117146;-71
2022/11/19 13:08:40;;;;;;;1.43;1.33;;;12.60;50.90;;;;;;20584;6766;306928;-71
2022/11/19 13:11:16;;;;;;;1.23;1.10;;;12.70;49.40;;;;;;20512;6751;308409;-72
2022/11/19 13:13:58;;;;;;;1.50;1.40;;;12.90;48.80;;;;;;20573;6766;335314;-71
2022/11/19 13:16:33;;;;;;;1.37;1.27;;;13.20;48.90;;;;;;20609;6766;279755;-72
2022/11/19 13:19:12;;;;;;;1.27;1.27;;;13.30;48.60;;;;;;20828;6766;117142;-72
2022/11/19 13:21:57;;;;;;;2.23;2.10;;;13.10;49.30;;;;;;20645;6766;122355;-71
2022/11/19 13:24:39;;;;;;;1.33;1.23;;;12.80;50.10;;;;;;20602;6769;306087;-72